createdAt,value
2018-12-14T00:01:20.666Z,-0.02
2018-12-14T00:03:51.706Z,-0.09
2018-12-14T00:06:23.075Z,-0.13
2018-12-14T00:08:52.077Z,-0.04
2018-12-14T00:11:21.616Z,-0.09
2018-12-14T00:13:50.952Z,-0.10
2018-12-14T00:16:20.159Z,0.01
2018-12-14T00:18:49.229Z,-0.07
2018-12-14T00:21:18.713Z,-0.09
2018-12-14T00:23:47.840Z,-0.04
2018-12-14T00:26:17.139Z,-0.17
2018-12-14T00:28:46.543Z,-0.17
2018-12-14T00:31:15.656Z,-0.20
2018-12-14T00:33:44.725Z,-0.18
2018-12-14T00:36:13.956Z,-0.14
2018-12-14T00:38:43.030Z,-0.10
2018-12-14T00:41:12.301Z,-0.11
2018-12-14T00:43:42.572Z,-0.14
2018-12-14T00:46:11.771Z,-0.12
2018-12-14T00:48:40.801Z,-0.06
2018-12-14T00:51:10.140Z,-0.11
2018-12-14T00:53:39.326Z,-0.07
2018-12-14T00:56:08.361Z,-0.06
2018-12-14T00:58:38.268Z,-0.08
2018-12-14T01:01:07.374Z,-0.05
2018-12-14T01:03:37.393Z,-0.03
2018-12-14T01:06:06.739Z,-0.07
2018-12-14T01:08:36.766Z,-0.11
2018-12-14T01:11:07.306Z,-0.05
2018-12-14T01:13:36.423Z,-0.06
2018-12-14T01:16:05.709Z,0.00
2018-12-14T01:18:35.081Z,0.06
2018-12-14T01:21:04.428Z,0.08
2018-12-14T01:23:33.421Z,-0.01
2018-12-14T01:26:04.976Z,-0.03
2018-12-14T01:28:34.335Z,-0.04
2018-12-14T01:31:03.438Z,-0.02
2018-12-14T01:33:32.553Z,0.01
2018-12-14T01:36:02.582Z,0.01
2018-12-14T01:38:31.641Z,0.03
2018-12-14T01:41:02.270Z,-0.01
2018-12-14T01:43:31.314Z,-0.15
2018-12-14T01:46:00.321Z,-0.06
2018-12-14T01:48:30.745Z,-0.12
2018-12-14T01:50:59.794Z,-0.12
2018-12-14T01:53:28.991Z,-0.17
2018-12-14T01:55:58.301Z,-0.28
2018-12-14T01:58:27.487Z,-0.32
2018-12-14T02:00:56.666Z,-0.34
2018-12-14T02:03:26.084Z,-0.45
2018-12-14T02:05:55.257Z,-0.43
2018-12-14T02:08:24.302Z,-0.45
2018-12-14T02:10:53.783Z,-0.46
2018-12-14T02:13:23.294Z,-0.53
2018-12-14T02:15:52.442Z,-0.50
2018-12-14T02:18:22.101Z,-0.60
2018-12-14T02:20:51.174Z,-0.63
2018-12-14T02:23:21.027Z,-0.62
2018-12-14T02:25:50.910Z,-0.62
2018-12-14T02:28:20.389Z,-0.51
2018-12-14T02:30:49.521Z,-0.50
2018-12-14T02:33:18.639Z,-0.48
2018-12-14T02:35:47.721Z,-0.45
2018-12-14T02:38:16.799Z,-0.37
2018-12-14T02:40:45.911Z,-0.29
2018-12-14T02:43:15.774Z,-0.36
2018-12-14T02:45:44.905Z,-0.24
2018-12-14T02:48:14.076Z,-0.23
2018-12-14T02:50:43.563Z,-0.17
2018-12-14T02:53:12.703Z,-0.18
2018-12-14T02:55:41.810Z,-0.18
2018-12-14T02:58:10.877Z,-0.23
2018-12-14T03:00:39.899Z,-0.20
2018-12-14T03:03:09.010Z,-0.17
2018-12-14T03:05:38.077Z,-0.18
2018-12-14T03:08:07.137Z,-0.28
2018-12-14T03:10:36.377Z,-0.20
2018-12-14T03:13:05.413Z,-0.25
2018-12-14T03:15:34.556Z,-0.25
2018-12-14T03:18:04.050Z,-0.21
2018-12-14T03:20:33.287Z,-0.14
2018-12-14T03:23:02.451Z,-0.16
2018-12-14T03:25:31.775Z,-0.15
2018-12-14T03:28:00.857Z,-0.23
2018-12-14T03:30:31.270Z,-0.18
2018-12-14T03:33:00.877Z,-0.23
2018-12-14T03:35:29.982Z,-0.26
2018-12-14T03:37:59.058Z,-0.25
2018-12-14T03:40:28.098Z,-0.29
2018-12-14T03:42:57.165Z,-0.28
2018-12-14T03:45:26.356Z,-0.27
2018-12-14T03:47:55.765Z,-0.24
2018-12-14T03:50:25.210Z,-0.20
2018-12-14T03:52:54.664Z,-0.11
2018-12-14T03:55:24.290Z,-0.03
2018-12-14T03:57:54.350Z,-0.06
2018-12-14T04:00:23.724Z,-0.04
2018-12-14T04:02:53.937Z,-0.15
2018-12-14T04:05:23.415Z,-0.11
2018-12-14T04:07:52.619Z,-0.11
2018-12-14T04:10:21.740Z,-0.18
2018-12-14T04:12:50.810Z,-0.10
2018-12-14T04:15:20.135Z,-0.16
2018-12-14T04:17:49.185Z,-0.16
2018-12-14T04:20:18.247Z,-0.18
2018-12-14T04:22:48.262Z,-0.15
2018-12-14T04:25:17.366Z,-0.14
2018-12-14T04:27:46.511Z,-0.22
2018-12-14T04:30:15.912Z,-0.19
2018-12-14T04:32:45.118Z,-0.15
2018-12-14T04:35:14.366Z,-0.09
2018-12-14T04:37:43.820Z,-0.05
2018-12-14T04:40:13.547Z,0.04
2018-12-14T04:42:48.782Z,0.06
2018-12-14T04:45:13.972Z,0.11
2018-12-14T04:47:43.057Z,0.05
2018-12-14T04:50:12.226Z,-0.01
2018-12-14T04:52:41.810Z,-0.03
2018-12-14T04:55:11.322Z,-0.07
2018-12-14T04:57:40.907Z,-0.06
2018-12-14T05:00:10.493Z,-0.16
2018-12-14T05:02:40.522Z,-0.30
2018-12-14T05:05:09.723Z,-0.27
2018-12-14T05:07:39.422Z,-0.36
2018-12-14T05:10:08.758Z,-0.39
2018-12-14T05:12:39.897Z,-0.40
2018-12-14T05:15:10.123Z,-0.42
2018-12-14T05:17:39.180Z,-0.41
2018-12-14T05:20:08.856Z,-0.44
2018-12-14T05:22:38.661Z,-0.42
2018-12-14T05:25:07.854Z,-0.44
2018-12-14T05:27:37.290Z,-0.56
2018-12-14T05:30:07.327Z,-0.56
2018-12-14T05:32:37.011Z,-0.63
2018-12-14T05:35:07.653Z,-0.62
2018-12-14T05:37:36.725Z,-0.58
2018-12-14T05:40:06.273Z,-0.66
2018-12-14T05:42:35.645Z,-0.74
2018-12-14T05:45:05.136Z,-0.80
2018-12-14T05:47:34.399Z,-0.82
2018-12-14T05:50:04.902Z,-0.81
2018-12-14T05:52:34.081Z,-0.86
2018-12-14T05:55:03.819Z,-1.49
2018-12-14T05:57:37.229Z,-0.87
2018-12-14T06:00:09.577Z,-0.80
2018-12-14T06:02:38.905Z,-0.80
2018-12-14T06:05:08.285Z,-0.78
2018-12-14T06:07:37.417Z,-0.89
2018-12-14T06:10:07.511Z,-0.83
2018-12-14T06:12:36.654Z,-0.87
2018-12-14T06:15:06.410Z,-0.85
2018-12-14T06:17:35.736Z,-0.87
2018-12-14T06:20:05.957Z,-0.94
2018-12-14T06:22:36.041Z,-0.86
2018-12-14T06:25:05.550Z,-0.87
2018-12-14T06:27:34.760Z,-0.87
2018-12-14T06:30:05.373Z,-0.82
2018-12-14T06:32:34.542Z,-0.81
2018-12-14T06:35:04.092Z,-0.82
2018-12-14T06:37:33.129Z,-0.78
2018-12-14T06:40:02.243Z,-0.74
2018-12-14T06:42:32.246Z,-0.66
2018-12-14T06:45:02.594Z,-0.57
2018-12-14T06:47:32.532Z,-0.53
2018-12-14T06:50:01.555Z,-0.49
2018-12-14T06:52:31.841Z,-0.50
2018-12-14T06:55:00.909Z,-0.49
2018-12-14T06:57:30.075Z,-0.41
2018-12-14T06:59:59.735Z,-0.41
2018-12-14T07:02:28.750Z,-0.35
2018-12-14T07:04:57.993Z,-0.22
2018-12-14T07:07:27.519Z,-0.22
2018-12-14T07:09:56.554Z,-0.24
2018-12-14T07:12:25.727Z,-0.25
2018-12-14T07:14:54.771Z,-0.30
2018-12-14T07:17:23.910Z,-0.32
2018-12-14T07:19:53.736Z,-0.33
2018-12-14T07:22:22.827Z,-0.37
2018-12-14T07:24:52.157Z,-0.30
2018-12-14T07:27:21.739Z,-0.40
2018-12-14T07:29:50.801Z,-0.48
2018-12-14T07:32:20.067Z,-0.49
2018-12-14T07:34:50.860Z,-0.45
2018-12-14T07:37:21.025Z,-0.46
2018-12-14T07:39:50.242Z,-0.44
2018-12-14T07:42:19.862Z,-0.49
2018-12-14T07:44:49.148Z,-0.50
2018-12-14T07:47:18.833Z,-0.48
2018-12-14T07:49:48.168Z,-0.50
2018-12-14T07:52:17.341Z,-0.50
2018-12-14T07:54:46.453Z,-0.47
2018-12-14T07:57:15.805Z,-0.48
2018-12-14T07:59:45.052Z,-0.51
2018-12-14T08:02:14.261Z,-0.53
2018-12-14T08:04:43.717Z,-0.53
2018-12-14T08:07:12.941Z,-0.45
2018-12-14T08:09:42.230Z,-0.48
2018-12-14T08:12:11.665Z,-0.40
2018-12-14T08:14:41.167Z,-0.30
2018-12-14T08:17:11.282Z,-0.34
2018-12-14T08:19:40.433Z,-0.29
2018-12-14T08:22:09.475Z,-0.21
2018-12-14T08:24:40.141Z,-0.16
2018-12-14T08:27:09.670Z,-0.12
2018-12-14T08:29:38.805Z,-0.05
2018-12-14T08:32:07.821Z,-0.09
2018-12-14T08:34:41.762Z,0.02
2018-12-14T08:37:10.838Z,0.13
2018-12-14T08:39:39.972Z,0.15
2018-12-14T08:42:09.638Z,0.22
2018-12-14T08:44:38.775Z,0.25
2018-12-14T08:47:08.778Z,0.33
2018-12-14T08:49:37.843Z,0.30
2018-12-14T08:52:07.321Z,0.37
2018-12-14T08:54:36.507Z,0.04
2018-12-14T08:57:06.062Z,0.44
2018-12-14T08:59:35.097Z,0.42
2018-12-14T09:02:04.725Z,0.45
2018-12-14T09:04:35.144Z,0.42
2018-12-14T09:07:04.688Z,0.39
2018-12-14T09:09:34.279Z,0.23
2018-12-14T09:12:03.872Z,0.16
2018-12-14T09:14:33.247Z,0.09
2018-12-14T09:17:02.444Z,0.02
2018-12-14T09:19:32.545Z,0.09
2018-12-14T09:22:01.586Z,-0.03
2018-12-14T09:24:30.673Z,-0.05
2018-12-14T09:27:00.089Z,-0.06
2018-12-14T09:29:29.302Z,-0.12
2018-12-14T09:31:58.393Z,-0.14
2018-12-14T09:34:27.445Z,-0.12
2018-12-14T09:36:56.551Z,-0.22
2018-12-14T09:39:25.560Z,-0.19
2018-12-14T09:41:55.584Z,-0.18
2018-12-14T09:44:26.106Z,-0.15
2018-12-14T09:46:55.281Z,-0.20
2018-12-14T09:49:24.378Z,-0.24
2018-12-14T09:51:53.411Z,-0.12
2018-12-14T09:54:23.019Z,-0.17
2018-12-14T09:56:52.078Z,-0.17
2018-12-14T09:59:21.190Z,-0.16
2018-12-14T10:01:50.352Z,-0.17
2018-12-14T10:04:19.513Z,-0.26
2018-12-14T10:06:49.705Z,-0.12
2018-12-14T10:09:19.853Z,-0.05
2018-12-14T10:11:54.867Z,-0.09
2018-12-14T10:14:20.076Z,-0.07
2018-12-14T10:16:49.162Z,-0.08
2018-12-14T10:19:18.663Z,-0.14
2018-12-14T10:21:48.552Z,-0.03
2018-12-14T10:24:17.986Z,-0.07
2018-12-14T10:26:47.008Z,-0.01
2018-12-14T10:29:17.235Z,-0.03
2018-12-14T10:31:46.596Z,-0.05
2018-12-14T10:34:15.685Z,-0.11
2018-12-14T10:36:45.097Z,0.02
2018-12-14T10:39:14.118Z,0.19
2018-12-14T10:41:43.143Z,0.26
2018-12-14T10:44:12.186Z,0.34
2018-12-14T10:46:41.262Z,0.28
2018-12-14T10:49:10.383Z,0.29
2018-12-14T10:51:40.006Z,0.22
2018-12-14T10:54:09.027Z,0.15
2018-12-14T10:56:38.149Z,0.38
2018-12-14T10:59:07.461Z,0.31
2018-12-14T11:01:42.017Z,0.48
2018-12-14T11:04:11.394Z,0.52
2018-12-14T11:06:41.529Z,0.38
2018-12-14T11:09:10.831Z,0.38
2018-12-14T11:11:39.942Z,0.29
2018-12-14T11:14:13.947Z,0.35
2018-12-14T11:16:40.366Z,0.33
2018-12-14T11:19:09.426Z,0.08
2018-12-14T11:21:39.329Z,0.29
2018-12-14T11:24:08.857Z,0.35
2018-12-14T11:26:38.855Z,0.36
2018-12-14T11:29:07.949Z,0.35
2018-12-14T11:31:37.385Z,0.37
2018-12-14T11:34:06.544Z,0.29
2018-12-14T11:36:35.614Z,0.12
2018-12-14T11:39:06.446Z,-0.09
2018-12-14T11:41:37.769Z,0.02
2018-12-14T11:44:07.514Z,0.08
2018-12-14T11:46:36.553Z,0.01
2018-12-14T11:49:08.737Z,-0.05
2018-12-14T11:51:40.015Z,-0.05
2018-12-14T11:54:10.327Z,-0.15
2018-12-14T11:56:41.502Z,-0.34
2018-12-14T11:59:10.981Z,-0.37
2018-12-14T12:01:40.113Z,-0.32
2018-12-14T12:04:09.567Z,-0.26
2018-12-14T12:06:38.650Z,-0.20
2018-12-14T12:09:10.907Z,-0.22
2018-12-14T12:11:41.790Z,-0.43
2018-12-14T12:14:10.932Z,-0.57
2018-12-14T12:16:39.940Z,-0.56
2018-12-14T12:19:09.433Z,-0.57
2018-12-14T12:21:38.677Z,-0.58
2018-12-14T12:24:07.696Z,-0.56
2018-12-14T12:26:37.742Z,-0.45
2018-12-14T12:29:06.841Z,-0.37
2018-12-14T12:31:36.018Z,-0.29
2018-12-14T12:34:05.490Z,-0.28
2018-12-14T12:36:35.052Z,-0.27
2018-12-14T12:39:05.622Z,-0.31
2018-12-14T12:41:35.985Z,-0.43
2018-12-14T12:44:05.745Z,-0.35
2018-12-14T12:46:35.209Z,-0.41
2018-12-14T12:49:04.779Z,-0.47
2018-12-14T12:51:34.541Z,-0.42
2018-12-14T12:54:03.757Z,-0.40
2018-12-14T12:56:33.148Z,-0.23
2018-12-14T12:59:03.705Z,-0.04
2018-12-14T13:01:33.696Z,0.01
2018-12-14T13:04:02.779Z,0.17
2018-12-14T13:06:32.180Z,0.10
2018-12-14T13:09:01.689Z,-0.11
2018-12-14T13:11:32.315Z,-0.34
2018-12-14T13:14:01.615Z,-0.41
2018-12-14T13:16:30.801Z,-0.42
2018-12-14T13:18:59.972Z,-0.44
2018-12-14T13:21:28.997Z,-0.46
2018-12-14T13:23:58.504Z,-0.40
2018-12-14T13:26:28.335Z,-0.52
2018-12-14T13:28:57.513Z,-0.52
2018-12-14T13:31:26.801Z,-0.50
2018-12-14T13:33:56.162Z,-0.44
2018-12-14T13:36:25.222Z,-0.51
2018-12-14T13:38:55.126Z,-0.46
2018-12-14T13:41:25.649Z,-0.47
2018-12-14T13:43:55.353Z,-0.63
2018-12-14T13:46:24.394Z,-0.70
2018-12-14T13:48:53.442Z,-0.55
2018-12-14T13:51:22.501Z,-0.47
2018-12-14T13:53:51.489Z,-0.46
2018-12-14T13:56:20.745Z,-0.64
2018-12-14T13:58:49.814Z,-0.69
2018-12-14T14:01:18.910Z,-0.75
2018-12-14T14:03:48.043Z,-0.81
2018-12-14T14:06:17.136Z,-0.74
2018-12-14T14:08:46.181Z,-0.69
2018-12-14T14:11:15.621Z,-0.57
2018-12-14T14:13:44.649Z,-0.48
2018-12-14T14:16:13.697Z,-0.43
2018-12-14T14:18:43.041Z,-0.28
2018-12-14T14:21:12.202Z,-0.20
2018-12-14T14:23:41.284Z,-0.12
2018-12-14T14:26:10.410Z,-0.11
2018-12-14T14:28:40.602Z,0.01
2018-12-14T14:31:10.651Z,0.13
2018-12-14T14:33:41.185Z,0.15
2018-12-14T14:36:12.724Z,0.16
2018-12-14T14:38:42.702Z,0.18
2018-12-14T14:41:13.001Z,0.08
2018-12-14T14:43:42.144Z,0.15
2018-12-14T14:46:11.876Z,0.15
2018-12-14T14:48:41.568Z,0.19
2018-12-14T14:51:11.159Z,0.22
2018-12-14T14:53:42.073Z,0.16
2018-12-14T14:56:11.602Z,0.03
2018-12-14T14:58:40.645Z,-0.30
2018-12-14T15:01:09.731Z,-0.41
2018-12-14T15:03:38.866Z,-0.39
2018-12-14T15:06:07.995Z,-0.45
2018-12-14T15:08:37.404Z,-0.36
2018-12-14T15:11:06.753Z,-0.43
2018-12-14T15:13:36.319Z,-0.33
2018-12-14T15:16:05.419Z,-0.35
2018-12-14T15:18:34.545Z,-0.39
2018-12-14T15:21:04.241Z,-0.34
2018-12-14T15:23:34.864Z,-0.34
2018-12-14T15:26:04.132Z,-0.28
2018-12-14T15:28:33.209Z,-0.24
2018-12-14T15:31:02.639Z,-0.25
2018-12-14T15:33:32.487Z,-0.29
2018-12-14T15:36:02.418Z,-0.32
2018-12-14T15:38:31.608Z,-0.23
2018-12-14T15:41:01.209Z,-0.30
2018-12-14T15:43:31.262Z,-0.20
2018-12-14T15:46:00.573Z,-0.05
2018-12-14T15:48:29.673Z,0.00
2018-12-14T15:50:59.086Z,0.04
2018-12-14T15:53:28.294Z,0.00
2018-12-14T15:55:57.346Z,0.09
2018-12-14T15:58:26.493Z,0.11
2018-12-14T16:00:55.835Z,0.04
2018-12-14T16:03:25.951Z,-0.10
2018-12-14T16:05:55.017Z,-0.03
2018-12-14T16:08:24.054Z,-0.04
2018-12-14T16:10:53.755Z,-0.11
2018-12-14T16:13:23.299Z,-0.15
2018-12-14T16:15:52.410Z,-0.33
2018-12-14T16:18:22.350Z,-0.45
2018-12-14T16:20:51.450Z,-0.56
2018-12-14T16:23:21.062Z,-0.53
2018-12-14T16:25:50.121Z,-0.45
2018-12-14T16:28:19.705Z,-0.38
2018-12-14T16:30:48.917Z,-0.38
2018-12-14T16:33:19.478Z,-0.29
2018-12-14T16:35:48.544Z,-0.17
2018-12-14T16:38:21.403Z,0.01
2018-12-14T16:40:50.601Z,0.07
2018-12-14T16:43:19.998Z,-0.07
2018-12-14T16:45:49.403Z,0.05
2018-12-14T16:48:18.517Z,0.09
2018-12-14T16:50:47.541Z,-0.11
2018-12-14T16:53:17.925Z,-0.05
2018-12-14T16:55:47.062Z,-0.08
2018-12-14T16:58:16.113Z,-0.16
2018-12-14T17:00:45.873Z,-0.27
2018-12-14T17:03:15.879Z,-0.34
2018-12-14T17:05:45.084Z,-0.60
2018-12-14T17:08:15.045Z,-0.75
2018-12-14T17:10:44.490Z,-0.71
2018-12-14T17:13:15.739Z,-0.81
2018-12-14T17:15:45.022Z,-0.79
2018-12-14T17:18:14.062Z,-0.77
2018-12-14T17:20:43.201Z,-0.75
2018-12-14T17:23:12.465Z,-0.73
2018-12-14T17:25:42.365Z,-0.82
2018-12-14T17:28:12.333Z,-0.73
2018-12-14T17:30:41.509Z,-0.82
2018-12-14T17:33:10.653Z,-0.75
2018-12-14T17:35:40.941Z,-0.94
2018-12-14T17:38:10.661Z,-0.92
2018-12-14T17:40:42.213Z,-0.89
2018-12-14T17:43:11.318Z,-0.92
2018-12-14T17:45:40.386Z,-0.94
2018-12-14T17:48:09.419Z,-0.90
2018-12-14T17:50:38.682Z,-0.78
2018-12-14T17:53:08.694Z,-0.75
2018-12-14T17:55:37.958Z,-0.78
2018-12-14T17:58:07.132Z,-0.77
2018-12-14T18:00:36.257Z,-0.76
2018-12-14T18:03:05.407Z,-0.75
2018-12-14T18:05:35.668Z,-0.70
2018-12-14T18:08:04.939Z,-0.89
2018-12-14T18:10:34.177Z,-0.86
2018-12-14T18:13:03.519Z,-0.84
2018-12-14T18:15:33.053Z,-0.90
2018-12-14T18:18:02.082Z,-0.80
2018-12-14T18:20:31.292Z,-0.69
2018-12-14T18:23:02.305Z,-0.70
2018-12-14T18:25:31.854Z,-0.49
2018-12-14T18:28:01.106Z,-0.42
2018-12-14T18:30:30.134Z,-0.42
2018-12-14T18:32:59.231Z,-0.48
2018-12-14T18:35:29.193Z,-0.41
2018-12-14T18:37:58.661Z,-0.40
2018-12-14T18:40:27.772Z,-0.38
2018-12-14T18:42:57.389Z,-0.40
2018-12-14T18:45:26.718Z,-0.52
2018-12-14T18:47:55.932Z,-0.55
2018-12-14T18:50:25.630Z,-0.44
2018-12-14T18:52:54.852Z,-0.50
2018-12-14T18:55:23.961Z,-0.33
2018-12-14T18:57:53.052Z,-0.20
2018-12-14T19:00:22.717Z,-0.20
2018-12-14T19:02:51.871Z,-0.18
2018-12-14T19:05:21.071Z,-0.21
2018-12-14T19:07:50.086Z,-0.17
2018-12-14T19:10:19.284Z,-0.17
2018-12-14T19:12:48.831Z,-0.20
2018-12-14T19:15:18.310Z,-0.13
2018-12-14T19:17:47.539Z,-0.18
2018-12-14T19:20:16.700Z,-0.22
2018-12-14T19:22:45.740Z,-0.18
2018-12-14T19:25:14.846Z,-0.09
2018-12-14T19:27:44.105Z,-0.20
2018-12-14T19:30:13.168Z,-0.33
2018-12-14T19:35:09.415Z,-0.54
2018-12-14T19:37:38.617Z,-0.59
2018-12-14T19:40:09.668Z,-0.74
2018-12-14T19:42:38.925Z,-0.81
2018-12-14T19:45:10.041Z,-0.67
2018-12-14T19:47:40.263Z,-0.71
2018-12-14T19:50:09.790Z,-0.70
2018-12-14T19:52:39.745Z,-0.66
2018-12-14T19:55:09.117Z,-0.65
2018-12-14T19:57:38.373Z,-0.47
2018-12-14T20:00:10.798Z,-0.36
2018-12-14T20:02:40.154Z,-0.40
2018-12-14T20:05:09.921Z,-0.42
2018-12-14T20:07:39.254Z,-0.46
2018-12-14T20:10:10.192Z,-0.35
2018-12-14T20:12:41.089Z,-0.42
2018-12-14T20:15:12.706Z,-0.62
2018-12-14T20:17:42.604Z,-0.65
2018-12-14T20:20:11.612Z,-0.66
2018-12-14T20:22:42.375Z,-0.73
2018-12-14T20:25:12.598Z,-0.63
2018-12-14T20:27:43.221Z,-0.59
2018-12-14T20:30:12.962Z,-0.55
2018-12-14T20:32:42.338Z,-0.47
2018-12-14T20:35:12.133Z,-0.51
2018-12-14T20:37:41.502Z,-0.72
2018-12-14T20:40:11.375Z,-0.62
2018-12-14T20:42:40.881Z,-0.48
2018-12-14T20:45:10.084Z,-0.50
2018-12-14T20:47:39.102Z,-0.56
2018-12-14T20:50:08.609Z,-0.57
2018-12-14T20:52:38.016Z,-0.60
2018-12-14T20:55:09.758Z,-0.68
2018-12-14T20:57:38.987Z,-0.68
2018-12-14T21:00:10.870Z,-0.63
2018-12-14T21:02:40.181Z,-0.60
2018-12-14T21:05:10.909Z,-0.81
2018-12-14T21:07:40.136Z,-0.72
2018-12-14T21:10:09.493Z,-0.72
2018-12-14T21:12:39.014Z,-0.64
2018-12-14T21:15:09.026Z,-0.62
2018-12-14T21:17:38.149Z,-0.59
2018-12-14T21:20:08.172Z,-0.62
2018-12-14T21:22:38.194Z,-0.66
2018-12-14T21:25:07.932Z,-0.58
2018-12-14T21:27:36.983Z,-0.43
2018-12-14T21:30:07.729Z,-0.27
2018-12-14T21:32:37.438Z,-0.36
2018-12-14T21:35:08.001Z,-0.35
2018-12-14T21:37:38.097Z,-0.23
2018-12-14T21:40:08.747Z,-0.15
2018-12-14T21:42:38.017Z,-0.17
2018-12-14T21:45:08.833Z,-0.04
2018-12-14T21:47:38.645Z,-0.06
2018-12-14T21:50:07.950Z,0.05
2018-12-14T21:52:37.134Z,-0.20
2018-12-14T21:55:07.419Z,-0.22
2018-12-14T21:57:36.901Z,-0.20
2018-12-14T22:00:08.942Z,-0.15
2018-12-14T22:02:38.619Z,-0.26
2018-12-14T22:05:08.500Z,-0.24
2018-12-14T22:07:37.862Z,-0.46
2018-12-14T22:10:08.283Z,-0.46
2018-12-14T22:12:37.889Z,-0.46
2018-12-14T22:15:07.683Z,-0.28
2018-12-14T22:17:37.025Z,-0.29
2018-12-14T22:20:06.228Z,-0.34
2018-12-14T22:22:35.806Z,-0.28
2018-12-14T22:25:05.421Z,-0.31
2018-12-14T22:27:34.918Z,-0.27
2018-12-14T22:30:05.445Z,-0.18
2018-12-14T22:32:34.745Z,-0.19
2018-12-14T22:35:04.345Z,-0.31
2018-12-14T22:37:33.557Z,-0.22
2018-12-14T22:40:02.841Z,-0.26
2018-12-14T22:42:32.261Z,-0.20
2018-12-14T22:45:01.341Z,-0.21
2018-12-14T22:47:30.476Z,-0.25
2018-12-14T22:49:59.688Z,-0.20
2018-12-14T22:52:28.698Z,-0.23
2018-12-14T22:54:58.017Z,-0.37
2018-12-14T22:57:27.770Z,-0.22
2018-12-14T22:59:57.314Z,-0.18
2018-12-14T23:02:26.694Z,-0.13
2018-12-14T23:04:57.156Z,-0.16
2018-12-14T23:07:28.104Z,-0.20
2018-12-14T23:09:58.484Z,-0.23
2018-12-14T23:12:27.666Z,-0.27
2018-12-14T23:14:57.573Z,-0.26
2018-12-14T23:17:27.089Z,-0.33
2018-12-14T23:19:56.143Z,-0.29
2018-12-14T23:22:25.242Z,-0.51
2018-12-14T23:24:55.182Z,-0.51
2018-12-14T23:27:24.463Z,-0.48
2018-12-14T23:29:53.498Z,-0.47
2018-12-14T23:32:23.790Z,-0.39
2018-12-14T23:34:53.388Z,-0.35
2018-12-14T23:37:22.473Z,-0.36
2018-12-14T23:39:51.514Z,-0.26
2018-12-14T23:42:20.902Z,-0.19
2018-12-14T23:44:50.052Z,-0.02
2018-12-14T23:47:19.381Z,0.08
2018-12-14T23:49:48.477Z,-0.15
2018-12-14T23:52:17.646Z,0.30
2018-12-14T23:54:47.358Z,0.36
2018-12-14T23:57:17.210Z,0.34
2018-12-14T23:59:46.213Z,0.44
